This site, now in its 22nd season, is a labour of love and fun from one of Ottawa's most avid time trialists and number crunchers. It adheres to and is permitted by the laws of Canada, promotes the objectives of every bicycle club whose results are shown, and is donated free of charge by myself for your enjoyment and usage. If you would like results from series you ride in to be shown here, give me (celia@drmath.ca) a shout!
NOTE that this site had to be quickly moved to a new server with a new version of Perl. Unfortunately the way of interacting with the web form has changed, so I'll have to do some reprogramming to get the buttons and search boxes working. Meanwhile the links work fine and you can always add query specifications into the URL! :-)


Index Page
ATT OTT WTT AATT CFCTT VVVTT
Help resultformat:
Case-sensitive

OBC Open TT Series - 2016-May-26 - 15km (Rockliffe Pkwy) (EvtFactor = 0.9087)

Ottawa Weather (18:00): Just a few drops of rain. Temperature: 23.4C, Wind: E 15km/h, Humidex: 25, Relative humidity: 43%, Dew point: 10C, Pressure: 101.6kPa, Visibility: 24km.
Ottawa Weather (19:00): Just a few drops of rain. Temperature: 22.6C, Wind: ENE 13km/h, Humidex: 24, Relative humidity: 45%, Dew point: 10C, Pressure: 101.6kPa, Visibility: 24km.
Ottawa Weather (20:00): Mostly Cloudy. Temperature: 20.9C, Wind: NE 8km/h, Humidex: 22, Relative humidity: 49%, Dew point: 10C, Pressure: 101.6kPa, Visibility: 24km.


These results were first posted on the OBC web site circa 11:30 on 2016-May-26 and are available here for your added pleasure and analysis.

 
 

BESTS?
 
1 Diaz, Rodrigo  OBC/EUR 19:55 45.188 1/68 U40M 1/8 1.0000
2 Brazeau, Marc RDO 20:08 44.702 2/68 U50M 1/11 0.9274
Simard, Alexandre IND 20:08 44.702 2/68 U40M 2/8  
4 Miles, Carson OBC 20:14 44.481 4/68 U17M 1/2 1.0995
5 Canuel, Karol-Ann BD 20:26 44.046 5/68 U30F 1/2 0.9878
6 Deak, Andrew IND 20:28 43.974 6/68 U40M 3/8  
7 Katz, Joel  OBC/RWR 20:35 43.725 7/68 U70M 1/8 0.9831
8 Lafleur, Guillaume ECG 20:37 43.654 8/68 U30M 1/8 1.0171
9 Lagueux, Frederic RPO 20:44 43.408 9/68 U50M 2/11 1.0317
Orange, Robert RWR 20:44 43.408 9/68 U60M 1/10  
11 Martel, Brad RWR 20:59 42.891 11/68 U60M 2/10 0.9439
12 Trafford, Brian RWR 21:10 42.520 12/68 U30M 2/8  
13 Tremblay-Gravel, Mathieu IND 21:14 42.386 13/68 U30M 3/8  
14 Labonte, Philippe OBC 21:19 42.220 14/68 U30M 4/8 1.0284
15 Robitaille, Brian  OBC/FC 21:25 42.023 15/68 U60M 3/10 1.0450
16 Desbiens, Martin OBC/RDO 21:33 41.763 16/68 U50M 3/11 1.0375
17 Smith, Andre OBC 21:38 41.602 17/68 U40M 4/8  
18 Burge, Craig  CYC 21:41 41.507 18/68 U60M 4/10 0.9817
19 Charlton, Christopher OBC 21:57 41.002 19/68 U70M 2/8 1.0416
20 Schuck, Peter  OBC/RWR 22:00 40.909 20/68 U60M 5/10  
21 Page, Graham OBC/NTF 22:06 40.724 21/68 U40M 5/8 1.0136
Szkraba, Adam OBC 22:06 40.724 21/68 U30M 5/8 1.0228
23 Padilla, Alberto RDO 22:15 40.449 23/68 U60M 6/10  
24 Budgell, Glen  OBC 22:33 39.911 24/68 U70M 3/8 0.9801
Kinos, John OBC 22:33 39.911 24/68 U60M 7/10  
26 Le-Lieu, Martin OBC 22:36 39.823 26/68 U40M 6/8 1.0794
27 Angeles, Robyn  IND 22:43 39.618 27/68 U60F 1/4 1.1427
28 Christie, Greg  OBC/RWR 22:47 39.503 28/68 U70M 4/8  
29 Meyer, Lisa  EUR 22:53 39.330 29/68 U60F 2/4 1.1204
30 Wright, David EUR 22:56 39.244 30/68 U50M 4/11 0.9741
31 Clarke, Shawn SRC/CYC 23:00 39.130 31/68 U40M 7/8 1.0553
32 Trepanier, Mathieu OBC 23:13 38.765 32/68 U50M 5/11 0.9575
33 Martin, David OBC 23:14 38.737 33/68 U50M 6/11 1.0503
34 Déry, Nicolas  OBC 23:15 38.710 34/68 U50M 7/11 1.0173
35 Canning, Jim OBC 23:16 38.682 35/68 U50M 8/11 1.0458
36 Thompson, William OBC 23:20 38.571 36/68 U60M 8/10 0.9371
37 Brügger, Marcel RWR 23:26 38.407 37/68 U60M 9/10  
38 Metsaranta, Juha OBC 23:32 38.244 38/68 U50M 9/11  
Y 39 Lemire, Marie-Alexandre OBC 23:35 38.163 39/68 U19F 1/1 1.0085
40 Looman, Greg OBC 23:36 38.136 40/68 U50M 10/11 1.0962
41 Deschamps, Martin WQW 23:41 38.001 41/68 U50M 11/11 0.9873
42 McDonald Ibarra, Kory  OBC 23:51 37.736 42/68 U50F 1/4 1.0774
43 Guignard, Christian OBC 24:06 37.344 43/68 U70M 5/8 0.9712
Morvan, Jacques  OBC 24:06 37.344 43/68 U80M 1/2 1.0357
45 Messier, Jill WQW 24:07 37.319 45/68 U30F 2/2  
46 Wright, Jake EUR 24:20 36.986 46/68 U17M 2/2 0.9775
47 Lafleur, Antoine ECG 24:35 36.610 47/68 U30M 6/8 0.9738
48 Comtois Lecocq, Alex OBC 24:39 36.511 48/68 U40M 8/8 1.0286
Guenette, Jean-Yves --- 24:39 36.511 48/68 U70M 6/8  
50 Christie, Adrian RWR 24:44 36.388 50/68 U30M 7/8  
51 Moerman, Bram  OBC 24:48 36.290 51/68 U80M 2/2 0.9311
52 Larocque, Mathyeu ECG 25:00 36.000 52/68 U30M 8/8  
53 Marineau, Xavier ECG 25:03 35.928 53/68 U19M 1/1  
54 Marleau, Dianne  OBC 25:06 35.857 54/68 U60F 3/4  
55 Coney, Ingrid  OBC 25:14 35.667 55/68 U70F 1/2 0.9764
56 Tkalec, Heather  EUR 25:19 35.550 56/68 U50F 2/4 1.0199
57 Allen, Paul RWR 26:10 34.395 57/68 U60M 10/10  
58 Girard, Nicolas OBC 26:13 34.329 58/68 U15M 1/3 1.0076
59 Imbrogno, Giorgio  OBC 26:17 34.242 59/68 U70M 7/8 0.9773
60 Cheff, Emmanuel OBC 26:21 34.156 60/68 U15M 2/3 1.1492
61 Kay, Carol BBC 26:33 33.898 61/68 U60F 4/4  
62 Beauchamp, Angela  EUR 26:42 33.708 62/68 U50F 3/4 0.8559
Dobbs, Brian OBC 26:42 33.708 62/68 U70M 8/8 0.9521
64 McInnis, Celia  OBC/ABC 26:53 33.478 64/68 U70F 2/2 0.9327
65 Paquette, Seneca OBC 27:39 32.550 65/68 U15F 1/1  
66 Cheff, Étienne OBC 27:42 32.491 66/68 U15M 3/3  
67 Paquette, Josée OBC 28:24 31.690 67/68 U50F 4/4 1.0702
68 Berube, Josiane OBC 31:15 28.800 68/68 U40F 1/1  
 
Average Speed of all of the above 68 finishes (1020km in 26:37:59):38.298
>>>Average of the Average Speeds for these 68 finishes38.653<<<
 

The number of data records shown above is 68
The server processing of your query took: 1 wallclock secs ( 0.06 usr + 0.00 sys = 0.06 CPU)

Thanks to our Helpers: Michel Bernier, Alex McKnight, Jess Raymond, Peter Tregunno.

     


Mar 25 (Good Friday - cancelled)
May 3 (10km) May 5 May 10 May 10 (10km) May 12 May 17 May 17 (10km) May 19 May 24 May 24 (10km)
  May 26  
May 31 May 31 (10km)
Jun 2 Jun 5 (40km) Jun 7 Jun 7 Jun 9 Jun 14 Jun 14 Jun 16 Jun 21 Jun 21 Jun 23 Jun 28 Jun 28 Jun 30
Jul 3 (40km) Jul 5 Jul 5 Jul 7 Jul 12 Jul 12 Jul 14 Jul 19 Jul 19 Jul 21 Jul 26 Jul 26 Jul 28
Aug 2 Aug 2 Aug 4 Aug 7 (40km) Aug 9 Aug 9 Aug 11 Aug 16 (canceled) Aug 16 (canceled) Aug 18 Aug 23 Aug 23 Aug 25 Aug 30 Aug 30 (Invitational)
Sep 1 Sep 4 (40km) Sep 6 Sep 8 Sep 13 Sep 20

WTT Rankings for All Participants
4 Best Speeds (≥4 WTT, ≤1 10km)     4 Best Speeds (≥4 WTT, ≤1 10km) by category
OTT Best Three 15km Rankings
Overall     by category     age-Hcap Female   age-Hcap Male
[OWA]TT BAR Ranking
Overall     by category     Rider "Consistency-Graph"
ABC BAR Ranking
Overall     by category     Rider "Consistency-Graph"
Other years
TT Calculator All TT People All TT events
ABC Home VVV Home
CKAP GOLD MEDAL
Other Links

Please send your comments and suggestions to: Celia McInnis
Copyright © 1998-2021 Celia McInnis. All rights reserved. Links are welcomed.